Golden Cecilie — VROA6 — position and weather

sailwx.info

Track history (hours):
 
Tides and Currents Weather Stations Pressure Air Temp Water Temp Dewpoint Dewpoint Depression Visibility Wind Speed Wind Dir Waves Ship Positions

Golden Cecilie

Last reported at 2018-Feb-16 15:23 UTC. Time now 2018-Feb-23 10:57 UTC.
Position N 05°21' E 001°10'.

Length 198 m; draft 7.6 m.

Type: Cargo ship. MMSI: 477289900.

Date/timePositionNaut miles runAvg speedWind from/ knotsBaromVisibWave heightAir tempDewpointWater temp
2018-Feb-16 15:23N 05°21' E 001°10'614.3
2018-Feb-16 15:00N 05°27' E 001°10'814.2
2018-Feb-16 14:28N 05°34' E 001°10'714.0
2018-Feb-16 14:00N 05°41' E 001°10'28 0.7
2018-Feb-14 19:45N 06°08' E 001°17'0 0.0
2018-Feb-14 16:30N 06°08' E 001°17'0 0.0
2018-Feb-14 02:18N 06°08' E 001°17'0 0.0
2018-Feb-14 00:57N 06°08' E 001°17'0 0.0
2018-Feb-14 00:27N 06°08' E 001°17'0 0.0
2018-Feb-13 23:51N 06°08' E 001°17'0 0.0
2018-Feb-13 23:30N 06°08' E 001°17'0 0.0
2018-Feb-13 19:30N 06°08' E 001°17'0 0.0
2018-Feb-13 18:57N 06°08' E 001°17'0 0.0
2018-Feb-13 18:27N 06°08' E 001°17'0 0.0
2018-Feb-12 18:08N 06°08' E 001°17'0 0.0
2018-Feb-12 17:59N 06°08' E 001°17'1 2.2
2018-Feb-12 17:30N 06°08' E 001°18'2 3.5
2018-Feb-12 17:01N 06°07' E 001°19'2 3.1
2018-Feb-12 16:30N 06°05' E 001°19'2 4.0
2018-Feb-12 15:58N 06°04' E 001°18'0 0.1
2018-Feb-12 15:16N 06°04' E 001°18'0 0.0
2018-Feb-12 14:55N 06°04' E 001°18'0 0.0
2018-Feb-12 08:01N 06°04' E 001°18'0 0.0
2018-Feb-11 21:13N 06°04' E 001°18'0 0.0
2018-Feb-11 20:58N 06°04' E 001°18'0 0.0
2018-Feb-11 20:19N 06°04' E 001°18'0 0.0
2018-Feb-11 19:46N 06°04' E 001°18'0 0.0
2018-Feb-11 19:19N 06°04' E 001°18'0 0.0
2018-Feb-11 18:58N 06°04' E 001°18'0 0.0
2018-Feb-11 18:28N 06°04' E 001°18'0 0.0
2018-Feb-11 17:58N 06°04' E 001°18'0 0.0
2018-Feb-11 17:28N 06°04' E 001°18'0 0.0
2018-Feb-11 16:58N 06°04' E 001°18'10 1.0
2018-Feb-11 06:49N 05°55' E 001°14'5512.2
2018-Feb-11 02:16N 05°18' E 000°32'313.3
2018-Feb-11 02:00N 05°17' E 000°29'913.3
2018-Feb-11 01:21N 05°14' E 000°21'513.4
2018-Feb-11 01:00N 05°12' E 000°17'713.2
2018-Feb-11 00:28N 05°09' E 000°10'613.1
2018-Feb-11 00:01N 05°07' E 000°05'813.3
2018-Feb-10 23:26N 05°04' W 000°02'713.4
2018-Feb-10 22:57N 05°01' W 000°08'3413.2
2018-Feb-10 20:21N 04°48' W 000°40'613.2
2018-Feb-10 19:52N 04°47' W 000°47'913.5
2018-Feb-10 19:13N 04°43' W 000°55'2213.2
2018-Feb-10 17:31N 04°34' W 001°15'011.7
2018-Feb-10 17:31N 04°34' W 001°15'  
2018-Feb-08 06:30N 08°07' W 014°30'1413.9
2018-Feb-08 05:30N 08°16' W 014°41'1413.9
2018-Feb-08 04:30N 08°24' W 014°52'713.9
2018-Feb-08 04:00N 08°29' W 014°57'1413.7
2018-Feb-08 03:00N 08°37' W 015°08'1413.8
2018-Feb-08 02:00N 08°46' W 015°19'713.7
2018-Feb-08 01:31N 08°50' W 015°24'713.7
2018-Feb-08 01:00N 08°54' W 015°30'713.8
2018-Feb-08 00:31N 08°59' W 015°35'713.8
2018-Feb-08 00:00N 09°03' W 015°40'713.6
2018-Feb-07 23:31N 09°08' W 015°45'713.7
2018-Feb-07 22:59N 09°13' W 015°50'713.7
2018-Feb-07 22:30N 09°18' W 015°55'713.7
2018-Feb-07 22:00N 09°24' W 015°59'  
Track history (hours):
 
Tides and Currents Weather Stations Pressure Air Temp Water Temp Dewpoint Dewpoint Depression Visibility Wind Speed Wind Dir Waves Ship Positions

Golden Cecilie

Last reported at 2018-Feb-16 15:23 UTC. Time now 2018-Feb-23 10:57 UTC.
Position N 05°21' E 001°10'.

Length 198 m; draft 7.6 m.

Type: Cargo ship. MMSI: 477289900.

Date/timePositionNaut miles runAvg speedWind from/ knotsBaromVisibWave heightAir tempDewpointWater temp
2018-Feb-16 15:23N 05°21' E 001°10'614.3
2018-Feb-16 15:00N 05°27' E 001°10'814.2
2018-Feb-16 14:28N 05°34' E 001°10'714.0
2018-Feb-16 14:00N 05°41' E 001°10'28 0.7
2018-Feb-14 19:45N 06°08' E 001°17'0 0.0
2018-Feb-14 16:30N 06°08' E 001°17'0 0.0
2018-Feb-14 02:18N 06°08' E 001°17'0 0.0
2018-Feb-14 00:57N 06°08' E 001°17'0 0.0
2018-Feb-14 00:27N 06°08' E 001°17'0 0.0
2018-Feb-13 23:51N 06°08' E 001°17'0 0.0
2018-Feb-13 23:30N 06°08' E 001°17'0 0.0
2018-Feb-13 19:30N 06°08' E 001°17'0 0.0
2018-Feb-13 18:57N 06°08' E 001°17'0 0.0
2018-Feb-13 18:27N 06°08' E 001°17'0 0.0
2018-Feb-12 18:08N 06°08' E 001°17'0 0.0
2018-Feb-12 17:59N 06°08' E 001°17'1 2.2
2018-Feb-12 17:30N 06°08' E 001°18'2 3.5
2018-Feb-12 17:01N 06°07' E 001°19'2 3.1
2018-Feb-12 16:30N 06°05' E 001°19'2 4.0
2018-Feb-12 15:58N 06°04' E 001°18'0 0.1
2018-Feb-12 15:16N 06°04' E 001°18'0 0.0
2018-Feb-12 14:55N 06°04' E 001°18'0 0.0
2018-Feb-12 08:01N 06°04' E 001°18'0 0.0
2018-Feb-11 21:13N 06°04' E 001°18'0 0.0
2018-Feb-11 20:58N 06°04' E 001°18'0 0.0
2018-Feb-11 20:19N 06°04' E 001°18'0 0.0
2018-Feb-11 19:46N 06°04' E 001°18'0 0.0
2018-Feb-11 19:19N 06°04' E 001°18'0 0.0
2018-Feb-11 18:58N 06°04' E 001°18'0 0.0
2018-Feb-11 18:28N 06°04' E 001°18'0 0.0
2018-Feb-11 17:58N 06°04' E 001°18'0 0.0
2018-Feb-11 17:28N 06°04' E 001°18'0 0.0
2018-Feb-11 16:58N 06°04' E 001°18'10 1.0
2018-Feb-11 06:49N 05°55' E 001°14'5512.2
2018-Feb-11 02:16N 05°18' E 000°32'313.3
2018-Feb-11 02:00N 05°17' E 000°29'913.3
2018-Feb-11 01:21N 05°14' E 000°21'513.4
2018-Feb-11 01:00N 05°12' E 000°17'713.2
2018-Feb-11 00:28N 05°09' E 000°10'613.1
2018-Feb-11 00:01N 05°07' E 000°05'813.3
2018-Feb-10 23:26N 05°04' W 000°02'713.4
2018-Feb-10 22:57N 05°01' W 000°08'3413.2
2018-Feb-10 20:21N 04°48' W 000°40'613.2
2018-Feb-10 19:52N 04°47' W 000°47'913.5
2018-Feb-10 19:13N 04°43' W 000°55'2213.2
2018-Feb-10 17:31N 04°34' W 001°15'011.7
2018-Feb-10 17:31N 04°34' W 001°15'  
2018-Feb-08 06:30N 08°07' W 014°30'1413.9
2018-Feb-08 05:30N 08°16' W 014°41'1413.9
2018-Feb-08 04:30N 08°24' W 014°52'713.9
2018-Feb-08 04:00N 08°29' W 014°57'1413.7
2018-Feb-08 03:00N 08°37' W 015°08'1413.8
2018-Feb-08 02:00N 08°46' W 015°19'713.7
2018-Feb-08 01:31N 08°50' W 015°24'713.7
2018-Feb-08 01:00N 08°54' W 015°30'713.8
2018-Feb-08 00:31N 08°59' W 015°35'713.8
2018-Feb-08 00:00N 09°03' W 015°40'713.6
2018-Feb-07 23:31N 09°08' W 015°45'713.7
2018-Feb-07 22:59N 09°13' W 015°50'713.7
2018-Feb-07 22:30N 09°18' W 015°55'713.7
2018-Feb-07 22:00N 09°24' W 015°59'  

Dump ship's entire track history